Time;durP1;ratioP1;P1;durP2;ratioP2;P2;SDS_P1;SDS_P2;PMS_P1;PMS_P2;Temp;Humidity;BMP_temperature;BMP_pressure;BME280_temperature;BME280_humidity;BME280_pressure;Samples;Min_cycle;Max_cycle;Signal;HPM_P1;HPM_P2
2021/09/26 00:02:38;;;;;;;2.23;2.03;;;;;;;19.82;69.19;100396.10;;;;-51
2021/09/26 00:05:38;;;;;;;2.30;1.95;;;;;;;19.82;69.19;100390.23;;;;-51
2021/09/26 00:08:38;;;;;;;3.21;2.10;;;;;;;19.82;69.20;100384.31;;;;-59
2021/09/26 00:11:40;;;;;;;2.33;2.13;;;;;;;19.80;69.23;100391.13;;;;-58
2021/09/26 00:14:38;;;;;;;2.11;1.97;;;;;;;19.80;69.27;100389.19;;;;-58
2021/09/26 00:17:38;;;;;;;2.20;2.00;;;;;;;19.79;69.23;100389.48;;;;-58
2021/09/26 00:20:38;;;;;;;2.37;2.17;;;;;;;19.79;69.22;100389.24;;;;-58
2021/09/26 00:23:38;;;;;;;2.49;1.93;;;;;;;19.79;69.27;100392.49;;;;-51
2021/09/26 00:26:38;;;;;;;2.27;2.07;;;;;;;19.79;69.23;100392.17;;;;-51
2021/09/26 00:29:38;;;;;;;2.20;2.00;;;;;;;19.78;69.30;100395.03;;;;-59
2021/09/26 00:32:39;;;;;;;2.30;2.10;;;;;;;19.78;69.26;100396.41;;;;-51
2021/09/26 00:35:38;;;;;;;2.32;2.01;;;;;;;19.78;69.25;100398.03;;;;-49
2021/09/26 00:38:38;;;;;;;2.35;2.02;;;;;;;19.79;69.25;100404.78;;;;-49
2021/09/26 00:41:38;;;;;;;2.17;1.97;;;;;;;19.78;69.25;100399.02;;;;-60
2021/09/26 00:44:38;;;;;;;2.28;2.08;;;;;;;19.77;69.29;100395.17;;;;-51
2021/09/26 00:47:38;;;;;;;2.09;1.97;;;;;;;19.77;69.31;100394.69;;;;-53
2021/09/26 00:50:38;;;;;;;2.28;2.01;;;;;;;19.76;69.26;100393.31;;;;-59
2021/09/26 00:53:38;;;;;;;2.22;2.02;;;;;;;19.76;69.31;100396.97;;;;-59
2021/09/26 00:56:38;;;;;;;2.24;2.04;;;;;;;19.76;69.30;100406.09;;;;-58
2021/09/26 00:59:38;;;;;;;2.44;2.05;;;;;;;19.76;69.26;100398.36;;;;-49
2021/09/26 01:02:38;;;;;;;2.71;2.11;;;;;;;19.75;69.36;100397.68;;;;-51
2021/09/26 01:05:38;;;;;;;1.90;1.80;;;;;;;19.76;69.33;100398.11;;;;-51
2021/09/26 01:08:38;;;;;;;2.27;2.09;;;;;;;19.74;69.36;100390.21;;;;-59
2021/09/26 01:11:38;;;;;;;2.22;2.02;;;;;;;19.74;69.36;100395.66;;;;-49
2021/09/26 01:14:38;;;;;;;2.10;1.90;;;;;;;19.75;69.35;100396.14;;;;-49
2021/09/26 01:17:38;;;;;;;2.10;1.94;;;;;;;19.74;69.35;100400.05;;;;-49
2021/09/26 01:20:38;;;;;;;2.09;1.98;;;;;;;19.74;69.34;100397.20;;;;-59
2021/09/26 01:23:38;;;;;;;3.53;2.13;;;;;;;19.74;69.37;100392.81;;;;-59
2021/09/26 01:26:38;;;;;;;2.14;2.02;;;;;;;19.74;69.35;100393.06;;;;-53
2021/09/26 01:29:38;;;;;;;2.09;1.99;;;;;;;19.74;69.34;100400.22;;;;-51
2021/09/26 01:33:38;;;;;;;2.22;2.02;;;;;;;19.73;69.35;100408.41;;;;-52
2021/09/26 01:36:38;;;;;;;2.45;2.25;;;;;;;19.73;69.35;100403.20;;;;-53
2021/09/26 01:39:38;;;;;;;2.19;1.99;;;;;;;19.72;69.37;100406.47;;;;-53
2021/09/26 01:42:38;;;;;;;2.18;1.98;;;;;;;19.72;69.38;100408.25;;;;-59
2021/09/26 01:45:38;;;;;;;1.93;1.83;;;;;;;19.73;69.32;100411.09;;;;-60
2021/09/26 01:48:38;;;;;;;2.19;1.99;;;;;;;19.73;69.33;100408.49;;;;-58
2021/09/26 01:51:38;;;;;;;2.15;1.95;;;;;;;19.73;69.34;100398.81;;;;-59
2021/09/26 01:54:38;;;;;;;2.19;1.99;;;;;;;19.72;69.38;100394.92;;;;-51
2021/09/26 01:57:38;;;;;;;2.28;2.08;;;;;;;19.72;69.40;100394.92;;;;-51
2021/09/26 02:00:38;;;;;;;2.24;2.04;;;;;;;19.72;69.37;100401.84;;;;-51
2021/09/26 02:03:38;;;;;;;2.20;2.00;;;;;;;19.72;69.38;100399.48;;;;-51
2021/09/26 02:06:38;;;;;;;2.35;2.15;;;;;;;19.71;69.41;100399.86;;;;-49
2021/09/26 02:09:38;;;;;;;2.04;1.94;;;;;;;19.71;69.41;100391.89;;;;-51
2021/09/26 02:12:38;;;;;;;2.13;2.00;;;;;;;19.71;69.41;100387.51;;;;-49
2021/09/26 02:15:38;;;;;;;2.27;2.07;;;;;;;19.70;69.44;100393.50;;;;-51
2021/09/26 02:18:38;;;;;;;2.11;2.01;;;;;;;19.69;69.46;100395.94;;;;-58
2021/09/26 02:21:38;;;;;;;2.20;2.00;;;;;;;19.70;69.38;100403.25;;;;-59
2021/09/26 02:24:38;;;;;;;2.19;2.00;;;;;;;19.69;69.42;100401.96;;;;-58
2021/09/26 02:27:38;;;;;;;2.08;1.98;;;;;;;19.69;69.43;100398.38;;;;-58
2021/09/26 02:30:39;;;;;;;1.93;1.81;;;;;;;19.69;69.41;100398.59;;;;-51
2021/09/26 02:33:40;;;;;;;2.37;2.17;;;;;;;19.69;69.41;100403.97;;;;-52
2021/09/26 02:36:38;;;;;;;2.17;1.97;;;;;;;19.68;69.48;100400.16;;;;-51
2021/09/26 02:39:38;;;;;;;2.07;1.97;;;;;;;19.69;69.43;100402.42;;;;-51
2021/09/26 02:42:38;;;;;;;2.07;1.90;;;;;;;19.68;69.42;100402.10;;;;-51
2021/09/26 02:45:38;;;;;;;2.11;1.89;;;;;;;19.69;69.48;100408.52;;;;-51
2021/09/26 02:48:38;;;;;;;2.29;2.09;;;;;;;19.69;69.46;100417.87;;;;-51
2021/09/26 02:51:38;;;;;;;2.26;2.06;;;;;;;19.68;69.41;100412.34;;;;-53
2021/09/26 02:54:38;;;;;;;2.25;1.86;;;;;;;19.68;69.42;100408.61;;;;-53
2021/09/26 02:57:38;;;;;;;2.23;2.00;;;;;;;19.68;69.42;100409.66;;;;-58
2021/09/26 03:00:38;;;;;;;2.09;1.99;;;;;;;19.68;69.47;100415.36;;;;-58
2021/09/26 03:03:38;;;;;;;2.05;1.95;;;;;;;19.68;69.43;100406.58;;;;-59
2021/09/26 03:06:38;;;;;;;2.07;1.97;;;;;;;19.68;69.43;100405.12;;;;-58
2021/09/26 03:09:38;;;;;;;2.22;2.02;;;;;;;19.67;69.44;100401.62;;;;-58
2021/09/26 03:12:38;;;;;;;2.34;2.14;;;;;;;19.67;69.45;100401.11;;;;-51
2021/09/26 03:15:38;;;;;;;2.10;1.93;;;;;;;19.67;69.44;100403.88;;;;-58
2021/09/26 03:18:38;;;;;;;2.40;2.20;;;;;;;19.67;69.49;100402.01;;;;-59
2021/09/26 03:21:38;;;;;;;2.23;2.05;;;;;;;19.67;69.46;100401.44;;;;-51
2021/09/26 03:24:38;;;;;;;2.19;1.99;;;;;;;19.66;69.46;100400.80;;;;-49
2021/09/26 03:27:38;;;;;;;2.77;1.94;;;;;;;19.66;69.45;100401.69;;;;-49
2021/09/26 03:30:38;;;;;;;2.11;1.91;;;;;;;19.66;69.45;100402.66;;;;-53
2021/09/26 03:33:38;;;;;;;1.95;1.85;;;;;;;19.66;69.50;100406.09;;;;-53
2021/09/26 03:36:38;;;;;;;2.37;2.08;;;;;;;19.66;69.45;100402.34;;;;-52
2021/09/26 03:39:38;;;;;;;1.99;1.89;;;;;;;19.66;69.45;100400.80;;;;-53
2021/09/26 03:42:38;;;;;;;2.01;1.91;;;;;;;19.65;69.50;100399.09;;;;-49
2021/09/26 03:45:38;;;;;;;2.28;2.08;;;;;;;19.64;69.52;100396.31;;;;-49
2021/09/26 03:48:38;;;;;;;2.09;1.93;;;;;;;19.64;69.47;100401.19;;;;-58
2021/09/26 03:51:39;;;;;;;2.09;1.97;;;;;;;19.64;69.52;100396.72;;;;-51
2021/09/26 03:54:38;;;;;;;1.96;1.79;;;;;;;19.65;69.47;100400.05;;;;-51
2021/09/26 03:57:38;;;;;;;2.06;1.93;;;;;;;19.64;69.48;100402.58;;;;-53
2021/09/26 04:00:38;;;;;;;1.97;1.87;;;;;;;19.63;69.54;100400.30;;;;-53
2021/09/26 04:03:38;;;;;;;2.03;1.90;;;;;;;19.64;69.50;100397.45;;;;-53
2021/09/26 04:06:38;;;;;;;2.18;1.98;;;;;;;19.63;69.54;100389.66;;;;-53
2021/09/26 04:09:38;;;;;;;2.17;1.97;;;;;;;19.63;69.47;100381.09;;;;-57
2021/09/26 04:12:38;;;;;;;2.07;1.97;;;;;;;19.63;69.49;100387.59;;;;-59
2021/09/26 04:15:38;;;;;;;2.15;1.97;;;;;;;19.63;69.53;100387.68;;;;-58
2021/09/26 04:18:38;;;;;;;2.22;2.02;;;;;;;19.63;69.52;100392.15;;;;-59
2021/09/26 04:21:38;;;;;;;2.20;2.00;;;;;;;19.62;69.54;100385.09;;;;-51
2021/09/26 04:24:38;;;;;;;1.99;1.89;;;;;;;19.62;69.50;100382.40;;;;-58
2021/09/26 04:27:38;;;;;;;2.37;2.01;;;;;;;19.63;69.49;100381.98;;;;-58
2021/09/26 04:30:38;;;;;;;2.29;2.10;;;;;;;19.62;69.55;100381.59;;;;-53
2021/09/26 04:33:38;;;;;;;2.23;1.91;;;;;;;19.62;69.48;100374.68;;;;-53
2021/09/26 04:36:38;;;;;;;1.94;1.82;;;;;;;19.62;69.56;100376.80;;;;-52
2021/09/26 04:39:38;;;;;;;2.24;2.04;;;;;;;19.62;69.53;100369.15;;;;-53
2021/09/26 04:42:38;;;;;;;2.31;2.11;;;;;;;19.62;69.54;100361.92;;;;-60
2021/09/26 04:45:38;;;;;;;2.23;2.03;;;;;;;19.62;69.53;100357.77;;;;-52
2021/09/26 04:48:38;;;;;;;2.43;1.94;;;;;;;19.62;69.54;100356.95;;;;-53
2021/09/26 04:51:38;;;;;;;2.08;1.98;;;;;;;19.62;69.53;100360.13;;;;-49
2021/09/26 04:54:39;;;;;;;1.89;1.79;;;;;;;19.62;69.58;100363.06;;;;-49
2021/09/26 04:57:38;;;;;;;2.00;1.90;;;;;;;19.61;69.54;100360.52;;;;-49
2021/09/26 05:00:38;;;;;;;2.20;2.00;;;;;;;19.61;69.59;100368.33;;;;-49
2021/09/26 05:03:38;;;;;;;2.09;1.95;;;;;;;19.60;69.56;100364.50;;;;-53
2021/09/26 05:06:38;;;;;;;2.20;2.00;;;;;;;19.61;69.55;100363.14;;;;-53
2021/09/26 05:09:38;;;;;;;2.00;1.90;;;;;;;19.61;69.54;100361.11;;;;-51
2021/09/26 05:12:38;;;;;;;1.99;1.80;;;;;;;19.61;69.56;100365.80;;;;-57
2021/09/26 05:15:38;;;;;;;2.17;1.96;;;;;;;19.61;69.60;100372.91;;;;-53
2021/09/26 05:18:38;;;;;;;2.08;1.95;;;;;;;19.60;69.56;100370.93;;;;-58
2021/09/26 05:21:38;;;;;;;2.09;1.99;;;;;;;19.59;69.58;100373.38;;;;-49
2021/09/26 05:24:38;;;;;;;2.07;1.97;;;;;;;19.59;69.58;100379.55;;;;-49
2021/09/26 05:27:38;;;;;;;2.12;1.93;;;;;;;19.59;69.61;100383.63;;;;-51
2021/09/26 05:30:38;;;;;;;2.21;2.04;;;;;;;19.59;69.57;100390.61;;;;-51
2021/09/26 05:33:38;;;;;;;2.20;2.00;;;;;;;19.60;69.55;100396.05;;;;-52
2021/09/26 05:36:38;;;;;;;2.03;1.85;;;;;;;19.60;69.54;100392.47;;;;-51
2021/09/26 05:39:38;;;;;;;2.40;2.20;;;;;;;19.59;69.53;100399.55;;;;-51
2021/09/26 05:42:38;;;;;;;2.00;1.90;;;;;;;19.59;69.58;100413.05;;;;-51
2021/09/26 05:45:38;;;;;;;2.08;1.97;;;;;;;19.60;69.59;100412.71;;;;-51
2021/09/26 05:48:38;;;;;;;2.30;2.10;;;;;;;19.60;69.58;100410.69;;;;-49
2021/09/26 05:51:38;;;;;;;2.09;1.99;;;;;;;19.59;69.56;100413.53;;;;-49
2021/09/26 05:54:38;;;;;;;2.17;1.97;;;;;;;19.59;69.58;100416.68;;;;-59
2021/09/26 05:57:38;;;;;;;2.07;1.92;;;;;;;19.59;69.57;100425.97;;;;-58
2021/09/26 06:00:38;;;;;;;2.10;1.93;;;;;;;19.58;69.55;100422.05;;;;-58
2021/09/26 06:03:38;;;;;;;2.03;1.92;;;;;;;19.59;69.56;100418.41;;;;-52
2021/09/26 06:06:38;;;;;;;2.13;1.93;;;;;;;19.59;69.55;100413.13;;;;-51
2021/09/26 06:09:38;;;;;;;2.10;1.90;;;;;;;19.59;69.53;100395.87;;;;-51
2021/09/26 06:12:38;;;;;;;2.44;2.03;;;;;;;19.58;69.60;100393.36;;;;-49
2021/09/26 06:15:38;;;;;;;2.11;1.94;;;;;;;19.58;69.60;100396.45;;;;-49
2021/09/26 06:18:38;;;;;;;1.92;1.82;;;;;;;19.59;69.53;100405.63;;;;-49
2021/09/26 06:21:42;;;;;;;2.20;2.00;;;;;;;19.58;69.59;100412.87;;;;-58
2021/09/26 06:24:38;;;;;;;2.12;1.99;;;;;;;19.58;69.55;100409.13;;;;-58
2021/09/26 06:27:38;;;;;;;1.87;1.77;;;;;;;19.58;69.54;100406.52;;;;-58
2021/09/26 06:30:38;;;;;;;1.88;1.78;;;;;;;19.58;69.59;100406.20;;;;-59
2021/09/26 06:33:40;;;;;;;1.99;1.89;;;;;;;19.58;69.58;100399.20;;;;-58
2021/09/26 06:36:38;;;;;;;2.01;1.91;;;;;;;19.58;69.55;100397.34;;;;-58
2021/09/26 06:39:38;;;;;;;1.96;1.86;;;;;;;19.57;69.60;100407.02;;;;-51
2021/09/26 06:42:38;;;;;;;2.18;1.99;;;;;;;19.58;69.55;100408.88;;;;-51
2021/09/26 06:45:38;;;;;;;2.01;1.91;;;;;;;19.58;69.58;100418.06;;;;-51
2021/09/26 06:48:38;;;;;;;2.14;1.99;;;;;;;19.57;69.59;100424.25;;;;-51
2021/09/26 06:51:38;;;;;;;2.05;1.95;;;;;;;19.57;69.63;100433.41;;;;-51
2021/09/26 06:54:38;;;;;;;2.17;2.00;;;;;;;19.58;69.55;100441.39;;;;-51
2021/09/26 06:57:38;;;;;;;2.22;1.90;;;;;;;19.57;69.60;100444.17;;;;-51
2021/09/26 07:00:38;;;;;;;1.91;1.81;;;;;;;19.57;69.53;100443.44;;;;-49
2021/09/26 07:03:38;;;;;;;1.99;1.82;;;;;;;19.58;69.61;100447.01;;;;-49
2021/09/26 07:06:38;;;;;;;2.10;1.90;;;;;;;19.57;69.58;100456.02;;;;-49
2021/09/26 07:09:39;;;;;;;1.90;1.80;;;;;;;19.57;69.62;100468.20;;;;-49
2021/09/26 07:12:38;;;;;;;2.00;1.90;;;;;;;19.56;69.65;100471.45;;;;-51
2021/09/26 07:15:38;;;;;;;1.99;1.89;;;;;;;19.57;69.62;100470.42;;;;-51
2021/09/26 07:18:38;;;;;;;1.90;1.80;;;;;;;19.57;69.61;100470.27;;;;-53
2021/09/26 07:21:38;;;;;;;2.04;1.94;;;;;;;19.56;69.63;100465.84;;;;-53
2021/09/26 07:24:38;;;;;;;2.13;1.97;;;;;;;19.56;69.63;100463.17;;;;-53
2021/09/26 07:27:38;;;;;;;2.00;1.89;;;;;;;19.56;69.64;100463.41;;;;-53
2021/09/26 07:30:38;;;;;;;1.89;1.79;;;;;;;19.58;69.61;100468.55;;;;-53
2021/09/26 07:33:38;;;;;;;11.51;3.95;;;;;;;19.60;71.36;100470.11;;;;-53
2021/09/26 07:36:38;;;;;;;5.57;4.31;;;;;;;19.59;71.27;100480.11;;;;-53
2021/09/26 07:39:38;;;;;;;10.99;3.86;;;;;;;19.60;71.02;100483.60;;;;-54
2021/09/26 07:42:38;;;;;;;12.40;3.63;;;;;;;19.61;71.23;100470.13;;;;-54
2021/09/26 07:45:38;;;;;;;8.80;3.48;;;;;;;19.64;71.07;100473.95;;;;-60
2021/09/26 07:48:38;;;;;;;6.09;3.81;;;;;;;19.64;70.96;100484.52;;;;-53
2021/09/26 07:51:38;;;;;;;10.50;3.47;;;;;;;19.66;70.83;100491.36;;;;-63
2021/09/26 07:54:39;;;;;;;6.74;3.39;;;;;;;19.67;70.95;100498.59;;;;-62
2021/09/26 07:57:38;;;;;;;8.11;3.66;;;;;;;19.67;70.79;100505.86;;;;-63
2021/09/26 08:00:38;;;;;;;4.67;3.33;;;;;;;19.69;70.85;100502.42;;;;-60
2021/09/26 08:03:38;;;;;;;7.62;3.50;;;;;;;19.70;70.87;100504.56;;;;-63
2021/09/26 08:06:38;;;;;;;4.93;3.18;;;;;;;19.71;70.93;100513.93;;;;-58
2021/09/26 08:09:39;;;;;;;6.47;3.22;;;;;;;19.72;70.82;100520.95;;;;-55
2021/09/26 08:12:38;;;;;;;8.21;3.31;;;;;;;19.72;70.76;100523.31;;;;-57
2021/09/26 08:15:38;;;;;;;8.65;3.39;;;;;;;19.72;70.68;100533.95;;;;-57
2021/09/26 08:18:38;;;;;;;6.29;3.30;;;;;;;19.71;70.63;100534.42;;;;-57
2021/09/26 08:21:38;;;;;;;5.64;3.22;;;;;;;19.72;70.59;100525.27;;;;-56
2021/09/26 08:24:38;;;;;;;6.15;3.12;;;;;;;19.72;70.60;100528.19;;;;-57
2021/09/26 08:27:38;;;;;;;4.31;3.12;;;;;;;19.72;70.53;100539.73;;;;-57
2021/09/26 08:30:38;;;;;;;4.86;2.96;;;;;;;19.72;70.49;100549.56;;;;-56
2021/09/26 08:33:38;;;;;;;5.71;2.97;;;;;;;19.72;70.39;100553.64;;;;-57
2021/09/26 08:36:38;;;;;;;5.77;2.99;;;;;;;19.72;70.41;100555.58;;;;-56
2021/09/26 08:39:38;;;;;;;6.87;3.09;;;;;;;19.73;70.31;100548.02;;;;-56
2021/09/26 08:42:39;;;;;;;9.71;3.57;;;;;;;19.74;70.41;100545.92;;;;-52
2021/09/26 08:45:38;;;;;;;4.95;3.09;;;;;;;19.76;70.39;100546.99;;;;-50
2021/09/26 08:48:38;;;;;;;5.67;3.18;;;;;;;19.77;70.46;100541.63;;;;-53
2021/09/26 08:51:38;;;;;;;8.66;3.22;;;;;;;19.78;70.63;100537.98;;;;-50
2021/09/26 08:54:38;;;;;;;5.94;3.17;;;;;;;19.79;70.73;100531.15;;;;-60
2021/09/26 08:57:38;;;;;;;5.74;3.08;;;;;;;19.80;70.52;100524.41;;;;-54
2021/09/26 09:00:38;;;;;;;3.45;3.02;;;;;;;19.81;70.57;100511.64;;;;-57
2021/09/26 09:03:38;;;;;;;4.22;2.95;;;;;;;19.83;70.49;100506.77;;;;-53
2021/09/26 09:06:38;;;;;;;8.08;3.11;;;;;;;19.84;70.56;100505.82;;;;-54
2021/09/26 09:09:38;;;;;;;5.41;3.01;;;;;;;19.85;70.63;100520.61;;;;-54
2021/09/26 09:12:38;;;;;;;5.69;2.89;;;;;;;19.86;70.83;100538.93;;;;-54
2021/09/26 09:15:38;;;;;;;5.06;3.00;;;;;;;19.89;70.78;100547.15;;;;-50
2021/09/26 09:18:40;;;;;;;4.47;3.21;;;;;;;19.90;70.87;100557.63;;;;-54
2021/09/26 09:21:39;;;;;;;7.93;3.10;;;;;;;19.91;70.64;100554.48;;;;-52
2021/09/26 09:24:38;;;;;;;8.72;3.03;;;;;;;19.91;70.75;100559.37;;;;-61
2021/09/26 09:27:38;;;;;;;7.06;3.04;;;;;;;19.91;70.86;100563.27;;;;-64
2021/09/26 09:30:38;;;;;;;8.18;3.20;;;;;;;19.91;70.76;100562.05;;;;-61
2021/09/26 09:33:38;;;;;;;5.95;3.30;;;;;;;19.92;70.67;100572.29;;;;-50
2021/09/26 09:36:38;;;;;;;10.36;3.13;;;;;;;19.93;70.71;100575.48;;;;-52
2021/09/26 09:39:38;;;;;;;6.28;3.15;;;;;;;19.94;70.58;100573.36;;;;-59
2021/09/26 09:42:38;;;;;;;7.12;3.18;;;;;;;19.94;70.77;100569.30;;;;-58
2021/09/26 09:45:38;;;;;;;8.77;3.28;;;;;;;19.95;70.66;100575.41;;;;-58
2021/09/26 09:48:38;;;;;;;5.38;3.03;;;;;;;19.95;70.61;100579.16;;;;-52
2021/09/26 09:51:38;;;;;;;5.07;2.93;;;;;;;19.96;70.64;100575.73;;;;-54
2021/09/26 09:54:38;;;;;;;6.00;3.06;;;;;;;19.98;70.56;100574.20;;;;-51
2021/09/26 09:57:38;;;;;;;6.12;3.33;;;;;;;19.98;70.76;100563.73;;;;-58
2021/09/26 10:00:38;;;;;;;4.62;2.93;;;;;;;20.00;70.62;100561.77;;;;-54
2021/09/26 10:03:38;;;;;;;5.77;3.15;;;;;;;20.00;70.62;100559.73;;;;-59
2021/09/26 10:06:38;;;;;;;9.06;3.01;;;;;;;20.01;70.61;100562.68;;;;-64
2021/09/26 10:09:38;;;;;;;5.81;3.03;;;;;;;20.03;70.83;100566.03;;;;-64
2021/09/26 10:12:38;;;;;;;5.02;3.19;;;;;;;20.03;70.75;100570.42;;;;-52
2021/09/26 10:15:38;;;;;;;7.89;3.28;;;;;;;20.04;70.65;100568.05;;;;-51
2021/09/26 10:18:38;;;;;;;6.43;3.28;;;;;;;20.05;70.57;100564.41;;;;-62
2021/09/26 10:21:38;;;;;;;5.65;3.14;;;;;;;20.06;70.61;100570.59;;;;-57
2021/09/26 10:24:40;;;;;;;8.53;3.31;;;;;;;20.07;70.63;100574.19;;;;-50
2021/09/26 10:27:38;;;;;;;4.72;3.01;;;;;;;20.07;70.62;100575.81;;;;-59
2021/09/26 10:30:38;;;;;;;7.87;2.98;;;;;;;20.07;70.69;100573.70;;;;-58
2021/09/26 10:33:38;;;;;;;5.41;2.84;;;;;;;20.09;70.57;100578.83;;;;-62
2021/09/26 10:36:38;;;;;;;3.89;2.83;;;;;;;20.09;70.53;100575.42;;;;-62
2021/09/26 10:39:38;;;;;;;4.88;2.90;;;;;;;20.10;70.57;100577.28;;;;-60
2021/09/26 10:42:38;;;;;;;5.06;3.09;;;;;;;20.11;70.50;100570.69;;;;-58
2021/09/26 10:45:38;;;;;;;4.77;3.13;;;;;;;20.10;70.55;100563.77;;;;-59
2021/09/26 10:48:38;;;;;;;4.73;2.81;;;;;;;20.12;70.58;100560.95;;;;-52
2021/09/26 10:51:38;;;;;;;4.68;2.91;;;;;;;20.11;70.51;100561.77;;;;-51
2021/09/26 10:54:38;;;;;;;4.17;3.01;;;;;;;20.10;70.46;100555.97;;;;-52
2021/09/26 10:57:38;;;;;;;4.76;2.97;;;;;;;20.10;70.40;100549.63;;;;-52
2021/09/26 11:00:38;;;;;;;6.27;3.14;;;;;;;20.09;70.30;100548.82;;;;-61
2021/09/26 11:03:39;;;;;;;5.74;3.13;;;;;;;20.09;70.34;100559.80;;;;-59
2021/09/26 11:06:38;;;;;;;4.22;3.19;;;;;;;20.09;70.33;100563.38;;;;-61
2021/09/26 11:09:38;;;;;;;4.62;2.97;;;;;;;20.08;70.24;100559.21;;;;-61
2021/09/26 11:12:38;;;;;;;6.63;3.03;;;;;;;20.07;70.22;100560.27;;;;-59
2021/09/26 11:15:38;;;;;;;11.50;3.18;;;;;;;20.07;70.15;100557.84;;;;-61
2021/09/26 11:18:38;;;;;;;4.53;2.86;;;;;;;20.06;70.12;100555.53;;;;-61
2021/09/26 11:21:38;;;;;;;4.15;2.89;;;;;;;20.07;70.13;100557.02;;;;-61
2021/09/26 11:24:38;;;;;;;3.47;2.97;;;;;;;20.06;70.08;100552.03;;;;-61
2021/09/26 11:27:38;;;;;;;4.82;2.79;;;;;;;20.06;70.03;100547.65;;;;-61
2021/09/26 11:30:38;;;;;;;4.61;2.89;;;;;;;20.05;70.07;100546.92;;;;-61
2021/09/26 11:33:38;;;;;;;5.23;3.14;;;;;;;20.05;70.09;100544.23;;;;-61
2021/09/26 11:36:38;;;;;;;3.94;3.05;;;;;;;20.06;70.07;100549.92;;;;-61
2021/09/26 11:39:38;;;;;;;4.91;2.91;;;;;;;20.05;70.03;100554.90;;;;-51
2021/09/26 11:42:38;;;;;;;3.53;2.75;;;;;;;20.04;70.05;100549.02;;;;-51
2021/09/26 11:45:38;;;;;;;5.67;3.07;;;;;;;20.04;70.05;100543.41;;;;-51
2021/09/26 11:48:38;;;;;;;4.01;3.17;;;;;;;20.04;70.04;100539.34;;;;-52
2021/09/26 11:51:38;;;;;;;4.22;2.70;;;;;;;20.04;70.03;100539.42;;;;-52
2021/09/26 11:54:38;;;;;;;3.25;2.95;;;;;;;20.03;70.02;100534.55;;;;-52
2021/09/26 11:57:38;;;;;;;3.33;2.73;;;;;;;20.03;70.02;100527.15;;;;-52
2021/09/26 12:00:38;;;;;;;2.99;2.69;;;;;;;20.03;69.99;100522.43;;;;-52
2021/09/26 12:03:38;;;;;;;3.34;2.76;;;;;;;20.02;69.91;100521.59;;;;-52
2021/09/26 12:06:38;;;;;;;3.83;3.01;;;;;;;20.03;69.91;100526.09;;;;-52
2021/09/26 12:09:38;;;;;;;3.09;2.79;;;;;;;20.02;69.94;100524.84;;;;-51
2021/09/26 12:12:38;;;;;;;3.89;2.63;;;;;;;20.03;69.97;100516.73;;;;-61
2021/09/26 12:15:38;;;;;;;3.53;2.85;;;;;;;20.02;69.95;100517.84;;;;-51
2021/09/26 12:18:38;;;;;;;3.25;2.62;;;;;;;20.02;69.92;100515.09;;;;-51
2021/09/26 12:21:38;;;;;;;3.03;2.73;;;;;;;20.02;69.92;100508.58;;;;-51
2021/09/26 12:24:38;;;;;;;3.45;2.83;;;;;;;20.01;69.94;100505.25;;;;-51
2021/09/26 12:27:38;;;;;;;4.30;3.03;;;;;;;20.02;69.90;100505.56;;;;-48
2021/09/26 12:30:38;;;;;;;6.53;2.99;;;;;;;20.02;69.94;100513.45;;;;-61
2021/09/26 12:33:38;;;;;;;4.95;2.86;;;;;;;20.03;69.97;100511.20;;;;-60
2021/09/26 12:36:38;;;;;;;3.03;2.70;;;;;;;20.05;70.05;100509.83;;;;-54
2021/09/26 12:39:38;;;;;;;3.10;2.73;;;;;;;20.06;70.17;100509.49;;;;-53
2021/09/26 12:42:38;;;;;;;4.07;2.89;;;;;;;20.07;70.20;100506.02;;;;-57
2021/09/26 12:45:39;;;;;;;3.33;2.97;;;;;;;20.08;70.29;100502.83;;;;-54
2021/09/26 12:48:38;;;;;;;4.77;2.95;;;;;;;20.08;70.24;100501.84;;;;-54
2021/09/26 12:51:38;;;;;;;4.74;3.19;;;;;;;20.09;70.25;100498.87;;;;-59
2021/09/26 12:54:38;;;;;;;4.79;2.97;;;;;;;20.08;70.18;100489.81;;;;-60
2021/09/26 12:57:38;;;;;;;3.53;3.10;;;;;;;20.07;70.24;100492.02;;;;-61
2021/09/26 13:00:38;;;;;;;3.65;2.90;;;;;;;20.07;70.13;100486.41;;;;-60
2021/09/26 13:03:38;;;;;;;5.17;3.19;;;;;;;20.08;70.16;100485.02;;;;-61
2021/09/26 13:06:38;;;;;;;6.41;3.18;;;;;;;20.07;70.13;100480.47;;;;-60
2021/09/26 13:09:38;;;;;;;4.28;2.93;;;;;;;20.06;70.11;100474.02;;;;-59
2021/09/26 13:12:38;;;;;;;3.39;2.99;;;;;;;20.06;70.10;100472.72;;;;-59
2021/09/26 13:15:41;;;;;;;3.69;3.05;;;;;;;20.06;70.03;100477.03;;;;-59
2021/09/26 13:18:38;;;;;;;3.29;2.99;;;;;;;20.06;70.02;100480.13;;;;-59
2021/09/26 13:21:37;;;;;;;3.44;2.81;;;;;;;20.06;70.04;100488.02;;;;-54
2021/09/26 13:24:38;;;;;;;4.50;2.91;;;;;;;20.05;70.04;100490.45;;;;-60
2021/09/26 13:27:38;;;;;;;3.73;3.05;;;;;;;20.04;69.98;100493.62;;;;-61
2021/09/26 13:30:38;;;;;;;3.31;2.75;;;;;;;20.05;70.01;100500.72;;;;-52
2021/09/26 13:33:38;;;;;;;3.27;2.89;;;;;;;20.05;69.94;100498.77;;;;-53
2021/09/26 13:36:38;;;;;;;3.91;2.78;;;;;;;20.04;69.98;100496.95;;;;-53
2021/09/26 13:39:38;;;;;;;3.75;3.01;;;;;;;20.05;70.00;100501.61;;;;-54
2021/09/26 13:42:38;;;;;;;3.04;2.83;;;;;;;20.04;69.95;100497.11;;;;-52
2021/09/26 13:45:38;;;;;;;3.02;2.75;;;;;;;20.04;69.97;100499.48;;;;-52
2021/09/26 13:48:39;;;;;;;3.54;2.98;;;;;;;20.03;69.96;100494.84;;;;-54
2021/09/26 13:51:38;;;;;;;3.87;3.13;;;;;;;20.03;69.94;100496.72;;;;-52
2021/09/26 13:54:38;;;;;;;3.66;2.83;;;;;;;20.03;69.95;100498.83;;;;-52
2021/09/26 13:57:38;;;;;;;3.35;2.82;;;;;;;20.04;69.89;100499.80;;;;-52
2021/09/26 14:00:38;;;;;;;3.14;2.86;;;;;;;20.03;69.90;100496.89;;;;-54
2021/09/26 14:03:38;;;;;;;3.05;2.75;;;;;;;20.03;69.90;100487.61;;;;-53
2021/09/26 14:06:38;;;;;;;4.23;2.86;;;;;;;20.03;69.90;100493.22;;;;-59
2021/09/26 14:09:38;;;;;;;3.63;2.77;;;;;;;20.03;70.03;100493.38;;;;-54
2021/09/26 14:12:38;;;;;;;3.34;3.00;;;;;;;20.05;70.12;100495.99;;;;-52
2021/09/26 14:15:38;;;;;;;3.18;2.88;;;;;;;20.06;70.23;100489.73;;;;-52
2021/09/26 14:18:38;;;;;;;3.53;2.90;;;;;;;20.07;70.38;100483.89;;;;-51
2021/09/26 14:21:38;;;;;;;3.85;2.95;;;;;;;20.08;70.38;100485.41;;;;-52
2021/09/26 14:24:38;;;;;;;3.55;2.91;;;;;;;20.09;70.45;100484.14;;;;-55
2021/09/26 14:27:38;;;;;;;4.31;2.85;;;;;;;20.11;70.48;100487.65;;;;-54
2021/09/26 14:30:38;;;;;;;3.23;2.93;;;;;;;20.11;70.58;100495.54;;;;-51
2021/09/26 14:33:38;;;;;;;3.31;2.80;;;;;;;20.12;70.70;100503.74;;;;-61
2021/09/26 14:36:38;;;;;;;5.59;3.10;;;;;;;20.14;70.55;100497.89;;;;-63
2021/09/26 14:39:37;;;;;;;3.88;2.83;;;;;;;20.15;70.66;100495.12;;;;-63
2021/09/26 14:42:38;;;;;;;3.01;2.71;;;;;;;20.15;70.67;100494.95;;;;-61
2021/09/26 14:45:38;;;;;;;4.37;2.75;;;;;;;20.17;70.67;100495.70;;;;-55
2021/09/26 14:48:38;;;;;;;3.99;2.79;;;;;;;20.17;70.83;100492.36;;;;-56
2021/09/26 14:51:38;;;;;;;3.21;2.80;;;;;;;20.17;70.85;100487.10;;;;-59
2021/09/26 14:54:38;;;;;;;3.59;2.78;;;;;;;20.18;70.86;100478.80;;;;-62
2021/09/26 14:57:38;;;;;;;4.45;2.79;;;;;;;20.19;70.78;100477.83;;;;-57
2021/09/26 15:00:38;;;;;;;3.66;2.93;;;;;;;20.21;70.54;100468.30;;;;-58
2021/09/26 15:03:38;;;;;;;3.57;2.71;;;;;;;20.20;70.58;100472.45;;;;-57
2021/09/26 15:06:38;;;;;;;4.19;3.05;;;;;;;20.20;70.68;100473.92;;;;-56
2021/09/26 15:09:38;;;;;;;3.88;2.67;;;;;;;20.20;70.68;100477.33;;;;-59
2021/09/26 15:12:38;;;;;;;3.92;2.89;;;;;;;20.21;70.76;100484.56;;;;-56
2021/09/26 15:15:40;;;;;;;3.59;2.88;;;;;;;20.23;70.76;100477.98;;;;-55
2021/09/26 15:18:38;;;;;;;3.86;2.71;;;;;;;20.23;70.68;100475.57;;;;-58
2021/09/26 15:21:38;;;;;;;5.71;2.71;;;;;;;20.24;70.55;100477.51;;;;-56
2021/09/26 15:24:38;;;;;;;4.50;2.86;;;;;;;20.24;70.85;100466.93;;;;-51
2021/09/26 15:27:38;;;;;;;4.83;2.69;;;;;;;20.25;70.68;100476.29;;;;-52
2021/09/26 15:30:38;;;;;;;3.49;2.85;;;;;;;20.25;70.69;100493.16;;;;-54
2021/09/26 15:33:38;;;;;;;23.10;3.05;;;;;;;20.26;70.67;100493.80;;;;-53
2021/09/26 15:36:38;;;;;;;5.16;2.82;;;;;;;20.27;70.87;100499.57;;;;-59
2021/09/26 15:39:37;;;;;;;5.13;2.79;;;;;;;20.28;70.76;100504.95;;;;-57
2021/09/26 15:42:38;;;;;;;5.77;2.81;;;;;;;20.29;70.96;100512.10;;;;-57
2021/09/26 15:45:38;;;;;;;7.23;2.97;;;;;;;20.30;70.86;100518.48;;;;-58
2021/09/26 15:48:38;;;;;;;5.49;2.94;;;;;;;20.31;70.87;100517.08;;;;-55
2021/09/26 15:51:38;;;;;;;6.34;2.92;;;;;;;20.32;70.83;100519.06;;;;-53
2021/09/26 15:54:38;;;;;;;4.42;2.89;;;;;;;20.32;70.81;100516.78;;;;-64
2021/09/26 15:57:40;;;;;;;4.77;2.84;;;;;;;20.32;70.67;100518.08;;;;-64
2021/09/26 16:00:38;;;;;;;5.03;2.89;;;;;;;20.32;70.72;100513.12;;;;-50
2021/09/26 16:03:38;;;;;;;6.24;2.96;;;;;;;20.33;70.65;100508.30;;;;-53
2021/09/26 16:06:38;;;;;;;3.95;2.84;;;;;;;20.33;70.58;100515.30;;;;-52
2021/09/26 16:09:38;;;;;;;4.99;2.77;;;;;;;20.34;70.79;100517.28;;;;-53
2021/09/26 16:12:38;;;;;;;3.58;2.79;;;;;;;20.34;70.73;100512.88;;;;-62
2021/09/26 16:15:38;;;;;;;5.86;3.07;;;;;;;20.34;70.60;100510.76;;;;-54
2021/09/26 16:18:38;;;;;;;5.59;2.93;;;;;;;20.34;70.67;100509.20;;;;-50
2021/09/26 16:21:37;;;;;;;4.04;2.95;;;;;;;20.35;70.62;100506.67;;;;-60
2021/09/26 16:24:38;;;;;;;4.28;2.70;;;;;;;20.35;70.75;100502.61;;;;-52
2021/09/26 16:27:38;;;;;;;5.93;2.91;;;;;;;20.36;70.64;100507.81;;;;-63
2021/09/26 16:30:38;;;;;;;3.34;2.81;;;;;;;20.36;70.70;100511.55;;;;-54
2021/09/26 16:33:38;;;;;;;4.73;2.91;;;;;;;20.36;70.68;100516.70;;;;-52
2021/09/26 16:36:38;;;;;;;3.61;2.73;;;;;;;20.37;70.80;100520.94;;;;-51
2021/09/26 16:39:38;;;;;;;5.99;2.93;;;;;;;20.37;70.71;100526.13;;;;-56
2021/09/26 16:42:38;;;;;;;5.53;2.87;;;;;;;20.38;70.59;100526.33;;;;-54